Nearby METAR Reports

 

KCRG - Jacksonvil/Craig, Florida, USA
Distance from station: S 4mi, 6km
Updated: Tue, 17-May-2022 2:53am EDT
Clear
Clear
 Wind from WSW
Wind: WSW 8 mph , 13 km/h
Temperature: 75°F , 24°C
Dew Point: 70°F , 21°C
Humidity: 83%
Barometer: 29.92 inHg , 1013.2 hPa
Clouds: Clear
Visibility: 10 miles , 16 km
2022/05/17 06:53 KCRG 170653Z AUTO 25007KT 10SM CLR 24/21 A2992 RMK AO2 SLP130 T02440206
KNRB - Mayport Nas, Florida, USA
Distance from station: E 6mi, 10km
Updated: Tue, 17-May-2022 2:52am EDT
Clear
Clear
 Wind from WSW
Wind: WSW 8 mph , 13 km/h
Temperature: 75°F , 24°C
Dew Point: 68°F , 20°C
Humidity: 78%
Barometer: 29.91 inHg , 1012.9 hPa
Clouds: Clear
Visibility: 10 miles , 16 km
2022/05/17 06:52 KNRB 170652Z AUTO 25007KT 10SM CLR 24/20 A2991 RMK AO2 SLP128 T02390200 $
 
KJAX - Jacksonville, Florida, USA
Distance from station: NW 13mi, 20km
Updated: Tue, 17-May-2022 2:56am EDT
Clear
Clear
 Wind from SW
Wind: SW 5 mph , 7 km/h
Temperature: 72°F , 22°C
Dew Point: 68°F , 20°C
Humidity: 88%
Barometer: 29.91 inHg , 1012.9 hPa
Clouds: Clear
Visibility: 10 miles , 16 km
2022/05/17 06:56 KJAX 170656Z 22004KT 10SM CLR 22/20 A2991 RMK AO2 SLP128 T02170200
KNIP - Jacksonville Nas, Florida, USA
Distance from station: SW 15mi, 24km
Updated: Tue, 17-May-2022 2:53am EDT
Few Clouds
Few Clouds
 Wind from WSW
Wind: WSW 8 mph , 13 km/h
Temperature: 75°F , 24°C
Dew Point: 70°F , 21°C
Humidity: 83%
Barometer: 29.93 inHg , 1013.5 hPa
Clouds: Few Clouds
Visibility: 10 miles , 16 km
Cloud details: Few Clouds 25000 ft
2022/05/17 06:53 KNIP 170653Z 25007KT 10SM FEW250 24/21 A2993 RMK AO2 SLP130 T02390206
 
KFHB - Fernandina Beach, Florida, USA
Distance from station: N 16mi, 26km
Updated: Tue, 17-May-2022 3:15am EDT
Clear
Clear
 Wind from SW
Wind: SW 9 mph , 15 km/h
Temperature: 73°F , 23°C
Dew Point: 68°F , 20°C
Humidity: 83%
Barometer: 29.91 inHg , 1012.9 hPa
Clouds: Clear
Visibility: 10 miles , 16 km
2022/05/17 07:15 KFHB 170715Z AUTO 22008KT 10SM CLR 23/20 A2991 RMK AO2 T02270204
KVQQ - Jacksonvil/Cecil, Florida, USA
Distance from station: WSW 25mi, 40km
Updated: Tue, 17-May-2022 3:35am EDT
Clear
Clear
 Wind from SW
Wind: SW 5 mph , 7 km/h
Temperature: 70°F , 21°C
Dew Point: 70°F , 21°C
Humidity: 100%
Barometer: 29.92 inHg , 1013.2 hPa
Clouds: Clear
Visibility: 10 miles , 16 km
2022/05/17 07:35 KVQQ 170735Z AUTO 23004KT 10SM CLR 21/21 A2992 RMK AO2
 
KSGJ - St Augustine, Florida, USA
Distance from station: SSE 31mi, 51km
Updated: Tue, 17-May-2022 2:56am EDT
Clear
Clear
 Wind from W
Wind: W 5 mph , 7 km/h
Temperature: 72°F , 22°C
Dew Point: 70°F , 21°C
Humidity: 94%
Barometer: 29.94 inHg , 1013.9 hPa
Clouds: Clear
Visibility: 10 miles , 16 km
2022/05/17 06:56 KSGJ 170656Z AUTO 26004KT 10SM CLR 22/21 A2994 RMK AO2 SLP136 T02170206
K42J - Keystone Heights, Florida, USA
Distance from station: SW 49mi, 79km
Updated: Tue, 17-May-2022 3:35am EDT

 Wind from calm
Wind: Calm
Temperature: 68°F , 20°C
Dew Point: 68°F , 20°C
Humidity: 100%
Barometer: 29.92 inHg , 1013.2 hPa
2022/05/17 07:35 K42J 170735Z AUTO 00000KT 20/20 A2992 RMK A01